Tetsa River, British Columbia

7:06 AM PDT on July 29, 2016 (GMT -0700)
Fort Nelson | | Change Station

Elev 1253 ft 58.84 °N, 122.60 °W | Updated 6 minutes ago

Mostly Cloudy
Mostly Cloudy
59 °F
Feels Like 59 °F
N
4
Wind Variable Wind from SW

Today
High -- | Low -- °F
--% Chance of Precip.
Yesterday
High -- | Low -- °F
Precip. -- in
Pressure 29.91 in
Visibility 30.0 miles
Clouds Few 6500 ft
Scattered Clouds 9000 ft
Mostly Cloudy 11000 ft
Mostly Cloudy 22000 ft
Dew Point 57 °F
Humidity 94%
Rainfall 0.00 in
Snow Depth Not available.
5:01 AM 9:43 PM
Waning Crescent, 22% visible
METAR CYYE 291400Z 23003KT 180V270 30SM FEW065 SCT090 BKN110 BKN220 15/14 A2989 RMK CU2AC2AC1CI1 SLP128 DENSITY ALT 1500FT
Pressure 29.91 in
Visibility 30.0 miles
Clouds Few 6500 ft
Scattered Clouds 9000 ft
Mostly Cloudy 11000 ft
Mostly Cloudy 22000 ft
Dew Point 57 °F
Humidity 94%
Rainfall 0.00 in
Snow Depth Not available.
5:01 AM 9:43 PM
Waning Crescent, 22% visible
METAR CYYE 291400Z 23003KT 180V270 30SM FEW065 SCT090 BKN110 BKN220 15/14 A2989 RMK CU2AC2AC1CI1 SLP128 DENSITY ALT 1500FT

10-Day Weather Forecast

No radar image for this location.
×

Almanac

Astronomy

Jul. 29, 2016 Rise Set
Actual Time
Civil Twilight
Nautical Twilight
Astronomical Twilight
Moon
Length of Visible Light
Length of Day
Tomorrow will be .
, % of the Moon is Illuminated

Today's Extremes

Country Highs Country Lows

Community

WunderPhotos

Upload Photos

1,928,341 photos uploaded!

WunderBlog® & News

Nearby

Air Quality

  Air Quality AQ Index Pollutant
Not available.

Snow Depth

Station Depth Elevation

Earthquake Activity

City Distance Mag. Time & Date
Minimum magnitude displayed is 2.5.

Coastal Water Temperatures

Place Temperature

Stations

Nearby Weather Stations

Station Location Temp. Windchill Dew Point Humidity Wind Precip. Elev Updated Type
                   

Watches & Warnings

There are currently no watches in effect.